sensor_id;sensor_type;location;lat;lon;timestamp;pressure;altitude;pressure_sealevel;temperature;humidity
50732;BME280;36700;50.488;2.544;2023-05-29T00:00:22;101826.91;;;16.73;58.84
50732;BME280;36700;50.488;2.544;2023-05-29T00:02:49;101819.78;;;16.72;59.23
50732;BME280;36700;50.488;2.544;2023-05-29T00:05:15;101815.19;;;16.72;58.99
50732;BME280;36700;50.488;2.544;2023-05-29T00:07:42;101822.50;;;16.72;58.78
50732;BME280;36700;50.488;2.544;2023-05-29T00:10:09;101821.88;;;16.69;58.85
50732;BME280;36700;50.488;2.544;2023-05-29T00:12:36;101820.81;;;16.71;59.33
50732;BME280;36700;50.488;2.544;2023-05-29T00:15:03;101821.69;;;16.71;59.22
50732;BME280;36700;50.488;2.544;2023-05-29T00:17:30;101821.69;;;16.71;59.06
50732;BME280;36700;50.488;2.544;2023-05-29T00:19:58;101822.94;;;16.68;59.25
50732;BME280;36700;50.488;2.544;2023-05-29T00:22:24;101831.69;;;16.71;59.33
50732;BME280;36700;50.488;2.544;2023-05-29T00:24:51;101828.97;;;16.71;59.04
50732;BME280;36700;50.488;2.544;2023-05-29T00:27:18;101835.47;;;16.69;59.20
50732;BME280;36700;50.488;2.544;2023-05-29T00:29:45;101835.47;;;16.69;59.03
50732;BME280;36700;50.488;2.544;2023-05-29T00:32:11;101835.66;;;16.68;58.89
50732;BME280;36700;50.488;2.544;2023-05-29T00:34:37;101838.63;;;16.66;59.23
50732;BME280;36700;50.488;2.544;2023-05-29T00:37:03;101849.03;;;16.69;59.01
50732;BME280;36700;50.488;2.544;2023-05-29T00:39:29;101850.09;;;16.68;59.21
50732;BME280;36700;50.488;2.544;2023-05-29T00:41:56;101846.53;;;16.68;59.35
50732;BME280;36700;50.488;2.544;2023-05-29T00:44:22;101845.72;;;16.67;59.11
50732;BME280;36700;50.488;2.544;2023-05-29T00:46:50;101853.66;;;16.69;59.25
50732;BME280;36700;50.488;2.544;2023-05-29T00:49:21;101854.69;;;16.68;59.15
50732;BME280;36700;50.488;2.544;2023-05-29T00:51:48;101848.44;;;16.67;59.25
50732;BME280;36700;50.488;2.544;2023-05-29T00:54:23;101848.84;;;16.64;59.32
50732;BME280;36700;50.488;2.544;2023-05-29T00:56:52;101855.72;;;16.67;58.88
50732;BME280;36700;50.488;2.544;2023-05-29T00:59:19;101858.44;;;16.67;59.44
50732;BME280;36700;50.488;2.544;2023-05-29T01:01:50;101855.94;;;16.65;59.18
50732;BME280;36700;50.488;2.544;2023-05-29T01:04:17;101854.91;;;16.66;59.34
50732;BME280;36700;50.488;2.544;2023-05-29T01:06:43;101855.94;;;16.65;59.24
50732;BME280;36700;50.488;2.544;2023-05-29T01:09:10;101850.75;;;16.64;59.19
50732;BME280;36700;50.488;2.544;2023-05-29T01:11:44;101850.50;;;16.65;59.52
50732;BME280;36700;50.488;2.544;2023-05-29T01:14:21;101856.19;;;16.64;59.35
50732;BME280;36700;50.488;2.544;2023-05-29T01:17:17;101858.91;;;16.64;59.29
50732;BME280;36700;50.488;2.544;2023-05-29T01:20:02;101858.91;;;16.64;59.39
50732;BME280;36700;50.488;2.544;2023-05-29T01:25:19;101861.59;;;16.64;59.39
50732;BME280;36700;50.488;2.544;2023-05-29T01:27:48;101862.66;;;16.63;59.32
50732;BME280;36700;50.488;2.544;2023-05-29T01:30:15;101858.03;;;16.63;59.52
50732;BME280;36700;50.488;2.544;2023-05-29T01:32:41;101850.94;;;16.62;59.52
50732;BME280;36700;50.488;2.544;2023-05-29T01:35:08;101845.72;;;16.61;59.41
50732;BME280;36700;50.488;2.544;2023-05-29T01:37:34;101849.28;;;16.61;59.57
50732;BME280;36700;50.488;2.544;2023-05-29T01:40:01;101857.44;;;16.61;59.79
50732;BME280;36700;50.488;2.544;2023-05-29T01:42:28;101864.72;;;16.61;59.48
50732;BME280;36700;50.488;2.544;2023-05-29T01:44:55;101869.34;;;16.60;59.73
50732;BME280;36700;50.488;2.544;2023-05-29T01:47:22;101855.13;;;16.58;59.69
50732;BME280;36700;50.488;2.544;2023-05-29T01:49:51;101856.78;;;16.59;59.82
50732;BME280;36700;50.488;2.544;2023-05-29T01:52:17;101861.19;;;16.60;59.71
50732;BME280;36700;50.488;2.544;2023-05-29T01:54:44;101863.28;;;16.58;59.76
50732;BME280;36700;50.488;2.544;2023-05-29T01:57:10;101864.94;;;16.59;59.79
50732;BME280;36700;50.488;2.544;2023-05-29T01:59:37;101868.72;;;16.58;59.48
50732;BME280;36700;50.488;2.544;2023-05-29T02:02:07;101871.44;;;16.58;59.63
50732;BME280;36700;50.488;2.544;2023-05-29T02:04:33;101868.72;;;16.58;59.77
50732;BME280;36700;50.488;2.544;2023-05-29T02:06:59;101864.53;;;16.55;59.56
50732;BME280;36700;50.488;2.544;2023-05-29T02:09:25;101858.91;;;16.57;59.65
50732;BME280;36700;50.488;2.544;2023-05-29T02:11:51;101853.69;;;16.55;59.63
50732;BME280;36700;50.488;2.544;2023-05-29T02:14:17;101855.38;;;16.57;59.69
50732;BME280;36700;50.488;2.544;2023-05-29T02:16:44;101851.81;;;16.56;59.53
50732;BME280;36700;50.488;2.544;2023-05-29T02:19:10;101865.59;;;16.54;59.70
50732;BME280;36700;50.488;2.544;2023-05-29T02:21:39;101869.97;;;16.55;59.79
50732;BME280;36700;50.488;2.544;2023-05-29T02:24:08;101861.00;;;16.55;59.73
50732;BME280;36700;50.488;2.544;2023-05-29T02:26:34;101862.06;;;16.54;59.79
50732;BME280;36700;50.488;2.544;2023-05-29T02:29:02;101862.06;;;16.54;59.72
50732;BME280;36700;50.488;2.544;2023-05-29T02:31:28;101856.84;;;16.52;59.72
50732;BME280;36700;50.488;2.544;2023-05-29T02:33:54;101855.78;;;16.53;59.65
50732;BME280;36700;50.488;2.544;2023-05-29T02:36:20;101852.22;;;16.53;59.59
50732;BME280;36700;50.488;2.544;2023-05-29T02:38:46;101860.38;;;16.53;59.84
50732;BME280;36700;50.488;2.544;2023-05-29T02:41:12;101853.28;;;16.52;59.63
50732;BME280;36700;50.488;2.544;2023-05-29T02:43:38;101847.03;;;16.45;59.85
50732;BME280;36700;50.488;2.544;2023-05-29T02:46:04;101857.88;;;16.51;59.62
50732;BME280;36700;50.488;2.544;2023-05-29T02:48:29;101859.75;;;16.51;59.84
50732;BME280;36700;50.488;2.544;2023-05-29T02:50:55;101858.94;;;16.50;59.76
50732;BME280;36700;50.488;2.544;2023-05-29T02:53:21;101860.81;;;16.50;59.61
50732;BME280;36700;50.488;2.544;2023-05-29T02:55:48;101862.69;;;16.49;59.81
50732;BME280;36700;50.488;2.544;2023-05-29T02:58:14;101870.81;;;16.49;59.76
50732;BME280;36700;50.488;2.544;2023-05-29T03:00:42;101859.16;;;16.49;59.71
50732;BME280;36700;50.488;2.544;2023-05-29T03:03:08;101859.16;;;16.49;59.83
50732;BME280;36700;50.488;2.544;2023-05-29T03:05:34;101865.84;;;16.46;59.76
50732;BME280;36700;50.488;2.544;2023-05-29T03:08:00;101850.34;;;16.47;59.26
50732;BME280;36700;50.488;2.544;2023-05-29T03:10:26;101860.41;;;16.46;59.74
50732;BME280;36700;50.488;2.544;2023-05-29T03:12:52;101854.97;;;16.46;59.47
50732;BME280;36700;50.488;2.544;2023-05-29T03:15:18;101857.88;;;16.45;59.39
50732;BME280;36700;50.488;2.544;2023-05-29T03:17:46;101857.88;;;16.45;59.81
50732;BME280;36700;50.488;2.544;2023-05-29T03:20:12;101862.47;;;16.44;59.43
50732;BME280;36700;50.488;2.544;2023-05-29T03:22:39;101860.59;;;16.45;59.59
50732;BME280;36700;50.488;2.544;2023-05-29T03:25:06;101862.72;;;16.42;59.60
50732;BME280;36700;50.488;2.544;2023-05-29T03:27:32;101857.28;;;16.42;59.38
50732;BME280;36700;50.488;2.544;2023-05-29T03:29:58;101867.28;;;16.42;59.49
50732;BME280;36700;50.488;2.544;2023-05-29T03:32:24;101856.44;;;16.42;59.52
50732;BME280;36700;50.488;2.544;2023-05-29T03:34:50;101862.72;;;16.42;59.36
50732;BME280;36700;50.488;2.544;2023-05-29T03:37:16;101859.78;;;16.37;59.62
50732;BME280;36700;50.488;2.544;2023-05-29T03:39:42;101869.41;;;16.40;59.56
50732;BME280;36700;50.488;2.544;2023-05-29T03:42:08;101872.09;;;16.40;59.64
50732;BME280;36700;50.488;2.544;2023-05-29T03:44:34;101882.13;;;16.39;59.25
50732;BME280;36700;50.488;2.544;2023-05-29T03:47:00;101883.16;;;16.38;59.44
50732;BME280;36700;50.488;2.544;2023-05-29T03:49:26;101885.88;;;16.38;59.51
50732;BME280;36700;50.488;2.544;2023-05-29T03:51:52;101889.66;;;16.37;59.40
50732;BME280;36700;50.488;2.544;2023-05-29T03:54:17;101881.50;;;16.37;59.32
50732;BME280;36700;50.488;2.544;2023-05-29T03:56:43;101887.75;;;16.38;59.22
50732;BME280;36700;50.488;2.544;2023-05-29T03:59:10;101880.66;;;16.37;59.17
50732;BME280;36700;50.488;2.544;2023-05-29T04:01:36;101880.91;;;16.35;59.43
50732;BME280;36700;50.488;2.544;2023-05-29T04:04:02;101875.47;;;16.35;59.35
50732;BME280;36700;50.488;2.544;2023-05-29T04:06:28;101883.63;;;16.35;59.78
50732;BME280;36700;50.488;2.544;2023-05-29T04:08:54;101879.19;;;16.34;59.04
50732;BME280;36700;50.488;2.544;2023-05-29T04:11:20;101879.19;;;16.34;59.36
50732;BME280;36700;50.488;2.544;2023-05-29T04:13:48;101885.69;;;16.33;59.18
50732;BME280;36700;50.488;2.544;2023-05-29T04:16:14;101885.69;;;16.33;59.03
50732;BME280;36700;50.488;2.544;2023-05-29T04:18:41;101890.28;;;16.33;59.11
50732;BME280;36700;50.488;2.544;2023-05-29T04:21:07;101885.69;;;16.33;59.22
50732;BME280;36700;50.488;2.544;2023-05-29T04:23:33;101894.03;;;16.32;59.04
50732;BME280;36700;50.488;2.544;2023-05-29T04:25:59;101894.88;;;16.32;59.18
50732;BME280;36700;50.488;2.544;2023-05-29T04:28:27;101892.16;;;16.32;59.07
50732;BME280;36700;50.488;2.544;2023-05-29T04:30:53;101888.84;;;16.30;58.89
50732;BME280;36700;50.488;2.544;2023-05-29T04:33:21;101901.56;;;16.29;58.86
50732;BME280;36700;50.488;2.544;2023-05-29T04:35:49;101905.75;;;16.32;58.70
50732;BME280;36700;50.488;2.544;2023-05-29T04:38:15;101906.38;;;16.27;58.90
50732;BME280;36700;50.488;2.544;2023-05-29T04:40:42;101916.78;;;16.31;59.07
50732;BME280;36700;50.488;2.544;2023-05-29T04:43:10;101933.09;;;16.31;58.76
50732;BME280;36700;50.488;2.544;2023-05-29T04:45:36;101936.03;;;16.29;58.73
50732;BME280;36700;50.488;2.544;2023-05-29T04:48:04;101935.19;;;16.28;59.01
50732;BME280;36700;50.488;2.544;2023-05-29T04:50:29;101939.34;;;16.31;58.95
50732;BME280;36700;50.488;2.544;2023-05-29T04:52:57;101939.34;;;16.31;58.69
50732;BME280;36700;50.488;2.544;2023-05-29T04:55:23;101940.41;;;16.30;58.61
50732;BME280;36700;50.488;2.544;2023-05-29T04:57:49;101937.69;;;16.30;58.73
50732;BME280;36700;50.488;2.544;2023-05-29T05:00:15;101942.28;;;16.29;58.79
50732;BME280;36700;50.488;2.544;2023-05-29T05:02:44;101937.69;;;16.30;58.75
50732;BME280;36700;50.488;2.544;2023-05-29T05:05:10;101932.66;;;16.27;58.63
50732;BME280;36700;50.488;2.544;2023-05-29T05:07:36;101936.03;;;16.29;58.51
50732;BME280;36700;50.488;2.544;2023-05-29T05:10:03;101938.75;;;16.29;58.49
50732;BME280;36700;50.488;2.544;2023-05-29T05:12:29;101938.75;;;16.29;58.76
50732;BME280;36700;50.488;2.544;2023-05-29T05:14:55;101936.03;;;16.29;58.47
50732;BME280;36700;50.488;2.544;2023-05-29T05:17:21;101929.75;;;16.28;58.51
50732;BME280;36700;50.488;2.544;2023-05-29T05:19:47;101934.34;;;16.28;58.09
50732;BME280;36700;50.488;2.544;2023-05-29T05:22:15;101941.47;;;16.29;58.43
50732;BME280;36700;50.488;2.544;2023-05-29T05:24:41;101944.16;;;16.29;58.27
50732;BME280;36700;50.488;2.544;2023-05-29T05:27:07;101945.00;;;16.29;58.52
50732;BME280;36700;50.488;2.544;2023-05-29T05:29:33;101938.75;;;16.29;58.22
50732;BME280;36700;50.488;2.544;2023-05-29T05:31:59;101942.28;;;16.29;58.42
50732;BME280;36700;50.488;2.544;2023-05-29T05:34:25;101946.03;;;16.28;58.04
50732;BME280;36700;50.488;2.544;2023-05-29T05:36:51;101948.56;;;16.30;58.22
50732;BME280;36700;50.488;2.544;2023-05-29T05:39:17;101952.09;;;16.31;58.14
50732;BME280;36700;50.488;2.544;2023-05-29T05:41:43;101947.69;;;16.29;57.88
50732;BME280;36700;50.488;2.544;2023-05-29T05:44:09;101954.78;;;16.31;58.72
50732;BME280;36700;50.488;2.544;2023-05-29T05:46:35;101952.09;;;16.31;58.04
50732;BME280;36700;50.488;2.544;2023-05-29T05:49:01;101955.66;;;16.31;58.17
50732;BME280;36700;50.488;2.544;2023-05-29T05:51:27;101946.88;;;16.29;58.01
50732;BME280;36700;50.488;2.544;2023-05-29T05:53:53;101950.41;;;16.29;57.72
50732;BME280;36700;50.488;2.544;2023-05-29T05:56:19;101955.66;;;16.31;57.79
50732;BME280;36700;50.488;2.544;2023-05-29T05:58:45;101963.78;;;16.31;57.87
50732;BME280;36700;50.488;2.544;2023-05-29T06:01:11;101954.59;;;16.32;57.96
50732;BME280;36700;50.488;2.544;2023-05-29T06:03:37;101955.44;;;16.33;57.97
50732;BME280;36700;50.488;2.544;2023-05-29T06:06:03;101961.69;;;16.33;57.68
50732;BME280;36700;50.488;2.544;2023-05-29T06:08:29;101961.69;;;16.33;57.47
50732;BME280;36700;50.488;2.544;2023-05-29T06:10:56;101961.69;;;16.33;57.59
50732;BME280;36700;50.488;2.544;2023-05-29T06:13:22;101963.34;;;16.34;57.46
50732;BME280;36700;50.488;2.544;2023-05-29T06:15:48;101958.78;;;16.35;57.56
50732;BME280;36700;50.488;2.544;2023-05-29T06:18:14;101968.78;;;16.34;57.73
50732;BME280;36700;50.488;2.544;2023-05-29T06:20:40;101969.84;;;16.40;57.72
50732;BME280;36700;50.488;2.544;2023-05-29T06:23:06;101971.91;;;16.45;57.79
50732;BME280;36700;50.488;2.544;2023-05-29T06:25:32;101972.34;;;16.55;56.84
50732;BME280;36700;50.488;2.544;2023-05-29T06:28:02;101977.13;;;16.66;56.52
50732;BME280;36700;50.488;2.544;2023-05-29T06:30:28;101975.22;;;16.74;56.24
50732;BME280;36700;50.488;2.544;2023-05-29T06:32:54;101977.91;;;16.80;56.91
50732;BME280;36700;50.488;2.544;2023-05-29T06:35:20;101982.31;;;16.88;56.42
50732;BME280;36700;50.488;2.544;2023-05-29T06:37:46;101987.09;;;16.93;55.60
50732;BME280;36700;50.488;2.544;2023-05-29T06:40:13;101982.09;;;17.03;55.47
50732;BME280;36700;50.488;2.544;2023-05-29T06:42:39;101985.84;;;17.09;55.22
50732;BME280;36700;50.488;2.544;2023-05-29T06:45:05;101987.50;;;17.10;55.41
50732;BME280;36700;50.488;2.544;2023-05-29T06:47:31;101988.31;;;17.17;55.05
50732;BME280;36700;50.488;2.544;2023-05-29T06:49:57;101990.19;;;17.23;55.33
50732;BME280;36700;50.488;2.544;2023-05-29T06:52:23;101989.53;;;17.28;54.73
50732;BME280;36700;50.488;2.544;2023-05-29T06:54:49;101980.75;;;17.33;54.67
50732;BME280;36700;50.488;2.544;2023-05-29T06:57:15;101986.78;;;17.35;54.69
50732;BME280;36700;50.488;2.544;2023-05-29T06:59:41;101980.69;;;17.40;54.57
50732;BME280;36700;50.488;2.544;2023-05-29T07:02:07;101974.41;;;17.46;54.47
50732;BME280;36700;50.488;2.544;2023-05-29T07:04:32;101987.34;;;17.50;54.19
50732;BME280;36700;50.488;2.544;2023-05-29T07:06:58;101974.09;;;17.61;54.02
50732;BME280;36700;50.488;2.544;2023-05-29T07:09:24;101980.72;;;17.72;53.22
50732;BME280;36700;50.488;2.544;2023-05-29T07:11:51;101973.88;;;18.01;52.93
50732;BME280;36700;50.488;2.544;2023-05-29T07:14:17;101966.75;;;18.33;51.99
50732;BME280;36700;50.488;2.544;2023-05-29T07:16:43;101965.38;;;18.86;51.14
50732;BME280;36700;50.488;2.544;2023-05-29T07:19:09;101962.66;;;20.39;47.30
50732;BME280;36700;50.488;2.544;2023-05-29T07:21:36;101964.25;;;21.53;44.27
50732;BME280;36700;50.488;2.544;2023-05-29T07:24:02;101958.94;;;21.92;42.81
50732;BME280;36700;50.488;2.544;2023-05-29T07:26:28;101963.59;;;22.09;42.55
50732;BME280;36700;50.488;2.544;2023-05-29T07:28:56;101959.75;;;22.27;42.51
50732;BME280;36700;50.488;2.544;2023-05-29T07:31:22;101968.38;;;22.36;41.83
50732;BME280;36700;50.488;2.544;2023-05-29T07:33:48;101966.94;;;22.28;41.81
50732;BME280;36700;50.488;2.544;2023-05-29T07:36:17;101958.81;;;21.12;44.56
50732;BME280;36700;50.488;2.544;2023-05-29T07:38:43;101974.59;;;20.02;46.67
50732;BME280;36700;50.488;2.544;2023-05-29T07:41:10;101973.56;;;19.23;48.53
50732;BME280;36700;50.488;2.544;2023-05-29T07:43:36;101976.22;;;18.74;50.26
50732;BME280;36700;50.488;2.544;2023-05-29T07:46:02;101972.75;;;18.41;51.44
50732;BME280;36700;50.488;2.544;2023-05-29T07:48:28;101975.28;;;18.11;52.38
50732;BME280;36700;50.488;2.544;2023-05-29T07:50:54;101978.28;;;17.96;52.49
50732;BME280;36700;50.488;2.544;2023-05-29T07:53:20;101976.94;;;17.80;52.74
50732;BME280;36700;50.488;2.544;2023-05-29T07:55:46;101967.13;;;17.72;53.18
50732;BME280;36700;50.488;2.544;2023-05-29T07:58:12;101968.84;;;17.66;53.47
50732;BME280;36700;50.488;2.544;2023-05-29T08:00:38;101983.31;;;17.60;53.76
50732;BME280;36700;50.488;2.544;2023-05-29T08:03:04;101980.41;;;17.55;53.73
50732;BME280;36700;50.488;2.544;2023-05-29T08:05:30;101967.47;;;17.50;53.94
50732;BME280;36700;50.488;2.544;2023-05-29T08:07:57;101976.06;;;17.47;54.13
50732;BME280;36700;50.488;2.544;2023-05-29T08:10:24;101984.03;;;17.42;54.04
50732;BME280;36700;50.488;2.544;2023-05-29T08:12:50;101984.88;;;17.42;54.20
50732;BME280;36700;50.488;2.544;2023-05-29T08:15:18;101983.22;;;17.41;54.12
50732;BME280;36700;50.488;2.544;2023-05-29T08:17:44;101986.34;;;17.38;54.41
50732;BME280;36700;50.488;2.544;2023-05-29T08:20:10;101981.16;;;17.36;54.48
50732;BME280;36700;50.488;2.544;2023-05-29T08:22:36;101978.44;;;17.36;54.39
50732;BME280;36700;50.488;2.544;2023-05-29T08:25:03;101983.22;;;17.34;54.43
50732;BME280;36700;50.488;2.544;2023-05-29T08:27:29;101984.06;;;17.35;54.37
50732;BME280;36700;50.488;2.544;2023-05-29T08:29:55;101980.50;;;17.34;54.54
50732;BME280;36700;50.488;2.544;2023-05-29T08:32:21;101987.22;;;17.32;54.32
50732;BME280;36700;50.488;2.544;2023-05-29T08:34:47;101993.09;;;17.29;54.55
50732;BME280;36700;50.488;2.544;2023-05-29T08:37:13;101980.56;;;17.28;54.42
50732;BME280;36700;50.488;2.544;2023-05-29T08:39:39;101985.34;;;17.26;54.93
50732;BME280;36700;50.488;2.544;2023-05-29T08:42:21;101978.84;;;17.27;54.58
50732;BME280;36700;50.488;2.544;2023-05-29T08:44:51;101972.59;;;17.26;54.40
50732;BME280;36700;50.488;2.544;2023-05-29T08:47:26;101989.72;;;17.27;54.53
50732;BME280;36700;50.488;2.544;2023-05-29T08:49:53;101985.34;;;17.26;54.50
50732;BME280;36700;50.488;2.544;2023-05-29T08:52:22;101988.31;;;17.24;54.50
50732;BME280;36700;50.488;2.544;2023-05-29T08:54:48;101984.75;;;17.23;54.89
50732;BME280;36700;50.488;2.544;2023-05-29T08:57:14;101995.81;;;17.22;54.81
50732;BME280;36700;50.488;2.544;2023-05-29T08:59:44;101994.78;;;17.23;54.65
50732;BME280;36700;50.488;2.544;2023-05-29T09:02:11;101994.78;;;17.23;54.92
50732;BME280;36700;50.488;2.544;2023-05-29T09:04:38;101996.66;;;17.22;54.81
50732;BME280;36700;50.488;2.544;2023-05-29T09:07:05;101994.16;;;17.21;54.69
50732;BME280;36700;50.488;2.544;2023-05-29T09:09:34;102002.31;;;17.21;54.71
50732;BME280;36700;50.488;2.544;2023-05-29T09:12:00;101989.78;;;17.20;54.66
50732;BME280;36700;50.488;2.544;2023-05-29T09:14:39;102005.03;;;17.21;54.76
50732;BME280;36700;50.488;2.544;2023-05-29T09:17:06;102003.38;;;17.20;54.83
50732;BME280;36700;50.488;2.544;2023-05-29T09:19:34;102000.44;;;17.21;55.06
50732;BME280;36700;50.488;2.544;2023-05-29T09:22:14;102011.31;;;17.21;55.09
50732;BME280;36700;50.488;2.544;2023-05-29T09:24:42;102003.56;;;17.18;54.95
50732;BME280;36700;50.488;2.544;2023-05-29T09:27:09;102006.09;;;17.20;54.86
50732;BME280;36700;50.488;2.544;2023-05-29T09:29:42;101998.34;;;17.17;55.11
50732;BME280;36700;50.488;2.544;2023-05-29T09:32:13;102003.56;;;17.18;55.17
50732;BME280;36700;50.488;2.544;2023-05-29T09:34:39;102011.72;;;17.18;55.15
50732;BME280;36700;50.488;2.544;2023-05-29T09:37:08;102011.72;;;17.18;55.12
50732;BME280;36700;50.488;2.544;2023-05-29T09:39:44;102012.56;;;17.19;55.02
50732;BME280;36700;50.488;2.544;2023-05-29T09:42:10;102013.63;;;17.18;55.36
50732;BME280;36700;50.488;2.544;2023-05-29T09:44:37;102013.63;;;17.18;55.02
50732;BME280;36700;50.488;2.544;2023-05-29T09:47:03;101996.47;;;17.17;55.62
50732;BME280;36700;50.488;2.544;2023-05-29T09:49:31;101994.59;;;17.18;55.19
50732;BME280;36700;50.488;2.544;2023-05-29T09:51:57;101996.88;;;17.14;55.07
50732;BME280;36700;50.488;2.544;2023-05-29T09:54:27;101992.91;;;17.17;55.28
50732;BME280;36700;50.488;2.544;2023-05-29T09:56:58;101993.97;;;17.16;55.37
50732;BME280;36700;50.488;2.544;2023-05-29T09:59:24;102002.75;;;17.18;55.50
50732;BME280;36700;50.488;2.544;2023-05-29T10:02:00;101995.63;;;17.17;55.33
50732;BME280;36700;50.488;2.544;2023-05-29T10:04:26;102001.06;;;17.17;55.01
50732;BME280;36700;50.488;2.544;2023-05-29T10:06:55;101997.53;;;17.16;55.51
50732;BME280;36700;50.488;2.544;2023-05-29T10:09:23;102003.56;;;17.18;54.92
50732;BME280;36700;50.488;2.544;2023-05-29T10:11:53;101997.53;;;17.16;55.39
50732;BME280;36700;50.488;2.544;2023-05-29T10:14:25;102000.25;;;17.16;55.30
50732;BME280;36700;50.488;2.544;2023-05-29T10:16:52;102001.06;;;17.17;55.18
50732;BME280;36700;50.488;2.544;2023-05-29T10:19:25;101997.31;;;17.18;55.04
50732;BME280;36700;50.488;2.544;2023-05-29T10:21:53;102004.63;;;17.17;55.39
50732;BME280;36700;50.488;2.544;2023-05-29T10:24:20;102006.50;;;17.17;55.10
50732;BME280;36700;50.488;2.544;2023-05-29T10:26:48;102002.97;;;17.16;55.11
50732;BME280;36700;50.488;2.544;2023-05-29T10:35:19;102003.78;;;17.17;54.88
50732;BME280;36700;50.488;2.544;2023-05-29T10:38:15;101996.47;;;17.17;55.12
50732;BME280;36700;50.488;2.544;2023-05-29T10:40:44;102001.06;;;17.17;55.09
50732;BME280;36700;50.488;2.544;2023-05-29T10:43:32;102014.66;;;17.17;54.99
50732;BME280;36700;50.488;2.544;2023-05-29T10:46:00;101997.53;;;17.16;55.11
50732;BME280;36700;50.488;2.544;2023-05-29T10:50:55;101991.03;;;17.17;55.29
50732;BME280;36700;50.488;2.544;2023-05-29T10:53:26;101995.41;;;17.18;55.30
50732;BME280;36700;50.488;2.544;2023-05-29T10:55:53;102001.91;;;17.17;55.23
50732;BME280;36700;50.488;2.544;2023-05-29T10:58:21;101993.75;;;17.17;55.07
50732;BME280;36700;50.488;2.544;2023-05-29T11:00:49;102002.97;;;17.16;55.06
50732;BME280;36700;50.488;2.544;2023-05-29T11:03:20;101991.03;;;17.17;55.03
50732;BME280;36700;50.488;2.544;2023-05-29T11:05:59;101996.47;;;17.17;55.06
50732;BME280;36700;50.488;2.544;2023-05-29T11:11:14;101993.75;;;17.17;54.81
50732;BME280;36700;50.488;2.544;2023-05-29T11:13:51;101991.88;;;17.18;55.06
50732;BME280;36700;50.488;2.544;2023-05-29T11:16:41;101998.13;;;17.18;55.15
50732;BME280;36700;50.488;2.544;2023-05-29T11:19:08;101999.19;;;17.17;54.85
50732;BME280;36700;50.488;2.544;2023-05-29T11:24:22;101993.75;;;17.17;55.25
50732;BME280;36700;50.488;2.544;2023-05-29T11:26:51;102001.69;;;17.19;55.22
50732;BME280;36700;50.488;2.544;2023-05-29T11:29:27;102001.69;;;17.19;54.92
50732;BME280;36700;50.488;2.544;2023-05-29T11:32:04;101993.56;;;17.19;55.09
50732;BME280;36700;50.488;2.544;2023-05-29T11:34:32;101994.59;;;17.18;55.34
50732;BME280;36700;50.488;2.544;2023-05-29T11:36:59;101993.56;;;17.19;54.93
50732;BME280;36700;50.488;2.544;2023-05-29T11:39:26;101991.88;;;17.18;55.09
50732;BME280;36700;50.488;2.544;2023-05-29T11:41:52;102010.69;;;17.19;55.30
50732;BME280;36700;50.488;2.544;2023-05-29T11:44:19;101992.69;;;17.18;55.23
50732;BME280;36700;50.488;2.544;2023-05-29T11:46:45;101995.22;;;17.20;55.28
50732;BME280;36700;50.488;2.544;2023-05-29T11:49:11;101999.81;;;17.19;55.00
50732;BME280;36700;50.488;2.544;2023-05-29T11:51:37;101990.84;;;17.19;55.22
50732;BME280;36700;50.488;2.544;2023-05-29T11:54:03;101984.34;;;17.20;55.10
50732;BME280;36700;50.488;2.544;2023-05-29T11:56:30;101987.47;;;17.17;55.09
50732;BME280;36700;50.488;2.544;2023-05-29T11:58:58;101992.50;;;17.20;55.40
50732;BME280;36700;50.488;2.544;2023-05-29T12:01:26;101996.03;;;17.20;55.24
50732;BME280;36700;50.488;2.544;2023-05-29T12:03:53;101984.34;;;17.20;55.03
50732;BME280;36700;50.488;2.544;2023-05-29T12:06:32;101989.78;;;17.20;54.98
50732;BME280;36700;50.488;2.544;2023-05-29T12:09:00;101972.41;;;17.21;54.94
50732;BME280;36700;50.488;2.544;2023-05-29T12:11:26;101967.19;;;17.19;55.40
50732;BME280;36700;50.488;2.544;2023-05-29T12:13:59;101975.34;;;17.19;55.39
50732;BME280;36700;50.488;2.544;2023-05-29T12:16:30;101975.97;;;17.21;55.23
50732;BME280;36700;50.488;2.544;2023-05-29T12:18:57;101979.50;;;17.22;55.26
50732;BME280;36700;50.488;2.544;2023-05-29T12:21:23;101969.50;;;17.22;55.07
50732;BME280;36700;50.488;2.544;2023-05-29T12:23:53;101979.50;;;17.22;55.04
50732;BME280;36700;50.488;2.544;2023-05-29T12:26:23;101975.34;;;17.19;55.07
50732;BME280;36700;50.488;2.544;2023-05-29T12:28:51;101988.50;;;17.22;55.24
50732;BME280;36700;50.488;2.544;2023-05-29T12:31:27;101973.03;;;17.23;55.20
50732;BME280;36700;50.488;2.544;2023-05-29T12:34:00;101978.47;;;17.23;55.25
50732;BME280;36700;50.488;2.544;2023-05-29T12:36:27;101978.69;;;17.21;55.32
50732;BME280;36700;50.488;2.544;2023-05-29T12:38:53;101970.31;;;17.23;55.20
50732;BME280;36700;50.488;2.544;2023-05-29T12:41:29;101974.06;;;17.22;55.16
50732;BME280;36700;50.488;2.544;2023-05-29T12:43:56;101960.47;;;17.22;55.29
50732;BME280;36700;50.488;2.544;2023-05-29T12:46:26;101974.06;;;17.22;55.46
50732;BME280;36700;50.488;2.544;2023-05-29T12:48:56;101982.88;;;17.24;55.38
50732;BME280;36700;50.488;2.544;2023-05-29T12:51:26;101976.38;;;17.25;55.68
50732;BME280;36700;50.488;2.544;2023-05-29T12:53:52;101967.38;;;17.25;55.62
50732;BME280;36700;50.488;2.544;2023-05-29T12:56:24;101968.44;;;17.23;55.38
50732;BME280;36700;50.488;2.544;2023-05-29T12:58:52;101966.31;;;17.26;55.48
50732;BME280;36700;50.488;2.544;2023-05-29T13:01:18;101978.03;;;17.26;55.44
50732;BME280;36700;50.488;2.544;2023-05-29T13:03:44;101967.16;;;17.26;55.57
50732;BME280;36700;50.488;2.544;2023-05-29T13:06:10;101969.03;;;17.26;55.56
50732;BME280;36700;50.488;2.544;2023-05-29T13:08:37;101973.66;;;17.25;55.27